sensor_id;sensor_type;location;lat;lon;timestamp;P1;durP1;ratioP1;P2;durP2;ratioP2
74530;SDS011;63010;55.668;37.878;2022-08-24T00:01:16;91.63;;;58.38;;
74530;SDS011;63010;55.668;37.878;2022-08-24T00:03:42;92.13;;;58.08;;
74530;SDS011;63010;55.668;37.878;2022-08-24T00:06:10;93.55;;;56.35;;
74530;SDS011;63010;55.668;37.878;2022-08-24T00:08:39;94.50;;;59.58;;
74530;SDS011;63010;55.668;37.878;2022-08-24T00:11:06;91.65;;;56.33;;
74530;SDS011;63010;55.668;37.878;2022-08-24T00:15:58;85.28;;;54.20;;
74530;SDS011;63010;55.668;37.878;2022-08-24T00:18:23;85.22;;;54.10;;
74530;SDS011;63010;55.668;37.878;2022-08-24T00:20:49;87.47;;;55.05;;
74530;SDS011;63010;55.668;37.878;2022-08-24T00:25:41;81.80;;;53.58;;
74530;SDS011;63010;55.668;37.878;2022-08-24T00:28:07;86.70;;;53.78;;
74530;SDS011;63010;55.668;37.878;2022-08-24T00:30:32;88.32;;;54.63;;
74530;SDS011;63010;55.668;37.878;2022-08-24T00:32:58;84.95;;;54.13;;
74530;SDS011;63010;55.668;37.878;2022-08-24T00:35:24;83.15;;;50.83;;
74530;SDS011;63010;55.668;37.878;2022-08-24T00:37:50;92.93;;;52.67;;
74530;SDS011;63010;55.668;37.878;2022-08-24T00:40:19;84.05;;;52.25;;
74530;SDS011;63010;55.668;37.878;2022-08-24T00:42:47;86.80;;;51.13;;
74530;SDS011;63010;55.668;37.878;2022-08-24T00:45:13;85.25;;;53.85;;
74530;SDS011;63010;55.668;37.878;2022-08-24T00:47:51;85.40;;;52.35;;
74530;SDS011;63010;55.668;37.878;2022-08-24T00:51:05;80.90;;;51.83;;
74530;SDS011;63010;55.668;37.878;2022-08-24T00:53:34;79.25;;;50.08;;
74530;SDS011;63010;55.668;37.878;2022-08-24T00:56:07;91.82;;;54.67;;
74530;SDS011;63010;55.668;37.878;2022-08-24T00:58:38;86.80;;;52.60;;
74530;SDS011;63010;55.668;37.878;2022-08-24T01:01:08;88.57;;;53.38;;
74530;SDS011;63010;55.668;37.878;2022-08-24T01:03:38;84.97;;;52.78;;
74530;SDS011;63010;55.668;37.878;2022-08-24T01:06:05;83.78;;;52.80;;
74530;SDS011;63010;55.668;37.878;2022-08-24T01:08:31;82.00;;;52.95;;
74530;SDS011;63010;55.668;37.878;2022-08-24T01:10:57;82.80;;;50.95;;
74530;SDS011;63010;55.668;37.878;2022-08-24T01:13:32;80.38;;;50.30;;
74530;SDS011;63010;55.668;37.878;2022-08-24T01:16:01;73.75;;;51.45;;
74530;SDS011;63010;55.668;37.878;2022-08-24T01:18:28;84.35;;;51.13;;
74530;SDS011;63010;55.668;37.878;2022-08-24T01:21:18;75.82;;;50.25;;
74530;SDS011;63010;55.668;37.878;2022-08-24T01:23:54;81.03;;;50.92;;
74530;SDS011;63010;55.668;37.878;2022-08-24T01:26:25;81.60;;;52.17;;
74530;SDS011;63010;55.668;37.878;2022-08-24T01:29:00;83.95;;;50.58;;
74530;SDS011;63010;55.668;37.878;2022-08-24T01:31:34;82.78;;;50.35;;
74530;SDS011;63010;55.668;37.878;2022-08-24T01:33:59;78.10;;;51.60;;
74530;SDS011;63010;55.668;37.878;2022-08-24T01:39:02;75.63;;;50.58;;
74530;SDS011;63010;55.668;37.878;2022-08-24T01:41:34;79.10;;;51.35;;
74530;SDS011;63010;55.668;37.878;2022-08-24T01:43:59;82.47;;;51.53;;
74530;SDS011;63010;55.668;37.878;2022-08-24T01:46:25;82.18;;;50.90;;
74530;SDS011;63010;55.668;37.878;2022-08-24T01:48:50;78.80;;;48.78;;
74530;SDS011;63010;55.668;37.878;2022-08-24T01:51:16;79.45;;;49.78;;
74530;SDS011;63010;55.668;37.878;2022-08-24T01:53:41;81.45;;;49.92;;
74530;SDS011;63010;55.668;37.878;2022-08-24T01:56:07;79.63;;;49.95;;
74530;SDS011;63010;55.668;37.878;2022-08-24T01:58:32;77.55;;;48.10;;
74530;SDS011;63010;55.668;37.878;2022-08-24T02:00:58;80.82;;;51.20;;
74530;SDS011;63010;55.668;37.878;2022-08-24T02:03:24;77.75;;;49.25;;
74530;SDS011;63010;55.668;37.878;2022-08-24T02:05:49;86.50;;;47.60;;
74530;SDS011;63010;55.668;37.878;2022-08-24T02:08:16;76.53;;;48.15;;
74530;SDS011;63010;55.668;37.878;2022-08-24T02:10:42;69.28;;;48.80;;
74530;SDS011;63010;55.668;37.878;2022-08-24T02:13:07;75.13;;;48.70;;
74530;SDS011;63010;55.668;37.878;2022-08-24T02:15:35;76.05;;;47.70;;
74530;SDS011;63010;55.668;37.878;2022-08-24T02:18:04;75.45;;;48.33;;
74530;SDS011;63010;55.668;37.878;2022-08-24T02:20:33;78.72;;;49.80;;
74530;SDS011;63010;55.668;37.878;2022-08-24T02:23:00;76.68;;;47.80;;
74530;SDS011;63010;55.668;37.878;2022-08-24T02:25:26;73.93;;;47.85;;
74530;SDS011;63010;55.668;37.878;2022-08-24T02:27:55;80.78;;;47.58;;
74530;SDS011;63010;55.668;37.878;2022-08-24T02:30:22;87.47;;;50.58;;
74530;SDS011;63010;55.668;37.878;2022-08-24T02:35:14;75.60;;;48.78;;
74530;SDS011;63010;55.668;37.878;2022-08-24T02:37:39;76.72;;;49.55;;
74530;SDS011;63010;55.668;37.878;2022-08-24T02:40:05;79.75;;;52.22;;
74530;SDS011;63010;55.668;37.878;2022-08-24T02:42:34;79.65;;;48.85;;
74530;SDS011;63010;55.668;37.878;2022-08-24T02:45:00;81.15;;;49.78;;
74530;SDS011;63010;55.668;37.878;2022-08-24T02:47:27;85.07;;;49.75;;
74530;SDS011;63010;55.668;37.878;2022-08-24T02:49:53;80.85;;;48.92;;
74530;SDS011;63010;55.668;37.878;2022-08-24T02:52:18;78.07;;;49.05;;
74530;SDS011;63010;55.668;37.878;2022-08-24T02:57:10;80.45;;;51.00;;
74530;SDS011;63010;55.668;37.878;2022-08-24T02:59:36;81.45;;;49.35;;
74530;SDS011;63010;55.668;37.878;2022-08-24T03:02:01;79.10;;;49.30;;
74530;SDS011;63010;55.668;37.878;2022-08-24T03:04:27;82.43;;;49.47;;
74530;SDS011;63010;55.668;37.878;2022-08-24T03:06:52;72.20;;;47.90;;
74530;SDS011;63010;55.668;37.878;2022-08-24T03:09:18;77.25;;;47.50;;
74530;SDS011;63010;55.668;37.878;2022-08-24T03:11:43;76.40;;;46.78;;
74530;SDS011;63010;55.668;37.878;2022-08-24T03:14:09;76.63;;;47.97;;
74530;SDS011;63010;55.668;37.878;2022-08-24T03:16:35;78.35;;;48.40;;
74530;SDS011;63010;55.668;37.878;2022-08-24T03:19:01;71.55;;;47.92;;
74530;SDS011;63010;55.668;37.878;2022-08-24T03:21:26;77.13;;;46.83;;
74530;SDS011;63010;55.668;37.878;2022-08-24T03:23:52;70.30;;;44.97;;
74530;SDS011;63010;55.668;37.878;2022-08-24T03:26:18;72.63;;;45.38;;
74530;SDS011;63010;55.668;37.878;2022-08-24T03:28:44;68.82;;;42.83;;
74530;SDS011;63010;55.668;37.878;2022-08-24T03:31:09;69.07;;;43.58;;
74530;SDS011;63010;55.668;37.878;2022-08-24T03:33:35;70.05;;;45.45;;
74530;SDS011;63010;55.668;37.878;2022-08-24T03:36:01;65.57;;;43.58;;
74530;SDS011;63010;55.668;37.878;2022-08-24T03:38:26;65.53;;;43.47;;
74530;SDS011;63010;55.668;37.878;2022-08-24T03:40:52;64.13;;;40.92;;
74530;SDS011;63010;55.668;37.878;2022-08-24T03:43:18;69.75;;;42.72;;
74530;SDS011;63010;55.668;37.878;2022-08-24T03:46:04;65.90;;;41.25;;
74530;SDS011;63010;55.668;37.878;2022-08-24T03:48:31;66.43;;;42.25;;
74530;SDS011;63010;55.668;37.878;2022-08-24T03:50:57;65.32;;;42.70;;
74530;SDS011;63010;55.668;37.878;2022-08-24T03:53:23;58.05;;;40.83;;
74530;SDS011;63010;55.668;37.878;2022-08-24T03:55:49;65.20;;;40.50;;
74530;SDS011;63010;55.668;37.878;2022-08-24T03:58:15;59.70;;;38.75;;
74530;SDS011;63010;55.668;37.878;2022-08-24T04:00:41;57.50;;;38.25;;
74530;SDS011;63010;55.668;37.878;2022-08-24T04:03:10;59.95;;;38.60;;
74530;SDS011;63010;55.668;37.878;2022-08-24T04:05:37;61.35;;;37.75;;
74530;SDS011;63010;55.668;37.878;2022-08-24T04:08:05;51.95;;;36.25;;
74530;SDS011;63010;55.668;37.878;2022-08-24T04:10:30;55.25;;;35.13;;
74530;SDS011;63010;55.668;37.878;2022-08-24T04:12:56;48.50;;;33.00;;
74530;SDS011;63010;55.668;37.878;2022-08-24T04:15:25;54.83;;;34.47;;
74530;SDS011;63010;55.668;37.878;2022-08-24T04:17:51;53.95;;;32.92;;
74530;SDS011;63010;55.668;37.878;2022-08-24T04:20:17;57.70;;;36.08;;
74530;SDS011;63010;55.668;37.878;2022-08-24T04:22:43;59.53;;;33.65;;
74530;SDS011;63010;55.668;37.878;2022-08-24T04:25:08;45.70;;;31.20;;
74530;SDS011;63010;55.668;37.878;2022-08-24T04:27:36;49.55;;;29.77;;
74530;SDS011;63010;55.668;37.878;2022-08-24T04:30:03;40.45;;;27.75;;
74530;SDS011;63010;55.668;37.878;2022-08-24T04:32:31;45.78;;;26.80;;
74530;SDS011;63010;55.668;37.878;2022-08-24T04:34:56;43.20;;;25.92;;
74530;SDS011;63010;55.668;37.878;2022-08-24T04:37:23;34.67;;;24.63;;
74530;SDS011;63010;55.668;37.878;2022-08-24T04:39:49;31.48;;;22.45;;
74530;SDS011;63010;55.668;37.878;2022-08-24T04:42:15;36.28;;;24.85;;
74530;SDS011;63010;55.668;37.878;2022-08-24T04:44:41;32.03;;;23.08;;
74530;SDS011;63010;55.668;37.878;2022-08-24T04:47:07;39.83;;;23.23;;
74530;SDS011;63010;55.668;37.878;2022-08-24T04:49:33;37.40;;;25.38;;
74530;SDS011;63010;55.668;37.878;2022-08-24T04:52:00;37.95;;;24.45;;
74530;SDS011;63010;55.668;37.878;2022-08-24T04:56:51;33.55;;;22.42;;
74530;SDS011;63010;55.668;37.878;2022-08-24T04:59:17;33.45;;;21.98;;
74530;SDS011;63010;55.668;37.878;2022-08-24T05:01:43;34.63;;;22.25;;
74530;SDS011;63010;55.668;37.878;2022-08-24T05:04:08;32.53;;;20.98;;
74530;SDS011;63010;55.668;37.878;2022-08-24T05:06:34;30.70;;;20.35;;
74530;SDS011;63010;55.668;37.878;2022-08-24T05:09:00;29.10;;;18.73;;
74530;SDS011;63010;55.668;37.878;2022-08-24T05:11:29;28.25;;;18.40;;
74530;SDS011;63010;55.668;37.878;2022-08-24T05:13:56;28.00;;;18.70;;
74530;SDS011;63010;55.668;37.878;2022-08-24T05:16:22;29.55;;;19.13;;
74530;SDS011;63010;55.668;37.878;2022-08-24T05:18:49;26.25;;;18.20;;
74530;SDS011;63010;55.668;37.878;2022-08-24T05:21:15;26.88;;;18.35;;
74530;SDS011;63010;55.668;37.878;2022-08-24T05:23:44;26.55;;;18.25;;
74530;SDS011;63010;55.668;37.878;2022-08-24T05:26:18;29.35;;;18.20;;
74530;SDS011;63010;55.668;37.878;2022-08-24T05:28:46;26.27;;;16.92;;
74530;SDS011;63010;55.668;37.878;2022-08-24T05:31:13;26.15;;;15.75;;
74530;SDS011;63010;55.668;37.878;2022-08-24T05:33:43;24.67;;;16.40;;
74530;SDS011;63010;55.668;37.878;2022-08-24T05:38:44;26.45;;;15.45;;
74530;SDS011;63010;55.668;37.878;2022-08-24T05:41:10;23.77;;;15.00;;
74530;SDS011;63010;55.668;37.878;2022-08-24T05:43:36;26.25;;;14.20;;
74530;SDS011;63010;55.668;37.878;2022-08-24T05:46:01;23.48;;;14.85;;
74530;SDS011;63010;55.668;37.878;2022-08-24T05:50:53;28.67;;;13.75;;
74530;SDS011;63010;55.668;37.878;2022-08-24T05:53:20;23.88;;;13.88;;
74530;SDS011;63010;55.668;37.878;2022-08-24T05:55:46;20.88;;;13.20;;
74530;SDS011;63010;55.668;37.878;2022-08-24T06:00:38;25.48;;;14.05;;
74530;SDS011;63010;55.668;37.878;2022-08-24T06:05:28;27.75;;;14.85;;
74530;SDS011;63010;55.668;37.878;2022-08-24T06:10:19;27.90;;;15.48;;
74530;SDS011;63010;55.668;37.878;2022-08-24T06:15:11;25.02;;;14.27;;
74530;SDS011;63010;55.668;37.878;2022-08-24T06:17:37;32.35;;;14.73;;
74530;SDS011;63010;55.668;37.878;2022-08-24T06:20:03;31.38;;;15.18;;
74530;SDS011;63010;55.668;37.878;2022-08-24T06:22:29;22.08;;;14.40;;
74530;SDS011;63010;55.668;37.878;2022-08-24T06:27:38;24.08;;;13.60;;
74530;SDS011;63010;55.668;37.878;2022-08-24T06:30:06;27.13;;;14.82;;
74530;SDS011;63010;55.668;37.878;2022-08-24T06:32:34;30.13;;;13.63;;
74530;SDS011;63010;55.668;37.878;2022-08-24T06:35:00;21.52;;;13.13;;
74530;SDS011;63010;55.668;37.878;2022-08-24T06:39:53;23.02;;;13.55;;
74530;SDS011;63010;55.668;37.878;2022-08-24T06:42:19;24.35;;;13.55;;
74530;SDS011;63010;55.668;37.878;2022-08-24T06:47:10;22.30;;;12.10;;
74530;SDS011;63010;55.668;37.878;2022-08-24T06:52:03;22.58;;;12.45;;
74530;SDS011;63010;55.668;37.878;2022-08-24T06:54:29;22.50;;;12.43;;
74530;SDS011;63010;55.668;37.878;2022-08-24T06:56:55;25.80;;;12.27;;
74530;SDS011;63010;55.668;37.878;2022-08-24T06:59:23;20.38;;;11.48;;
74530;SDS011;63010;55.668;37.878;2022-08-24T07:01:52;24.63;;;10.57;;
74530;SDS011;63010;55.668;37.878;2022-08-24T07:04:20;19.52;;;11.20;;
74530;SDS011;63010;55.668;37.878;2022-08-24T07:06:46;18.00;;;10.20;;
74530;SDS011;63010;55.668;37.878;2022-08-24T07:11:38;22.05;;;11.82;;
74530;SDS011;63010;55.668;37.878;2022-08-24T07:16:29;20.40;;;10.48;;
74530;SDS011;63010;55.668;37.878;2022-08-24T07:21:20;14.02;;;8.60;;
74530;SDS011;63010;55.668;37.878;2022-08-24T07:23:47;16.13;;;9.50;;
74530;SDS011;63010;55.668;37.878;2022-08-24T07:26:15;16.73;;;8.82;;
74530;SDS011;63010;55.668;37.878;2022-08-24T07:28:43;13.18;;;7.72;;
74530;SDS011;63010;55.668;37.878;2022-08-24T07:33:34;13.75;;;7.82;;
74530;SDS011;63010;55.668;37.878;2022-08-24T07:36:00;12.75;;;7.70;;
74530;SDS011;63010;55.668;37.878;2022-08-24T07:40:52;14.30;;;6.80;;
74530;SDS011;63010;55.668;37.878;2022-08-24T07:43:18;10.98;;;6.57;;
74530;SDS011;63010;55.668;37.878;2022-08-24T07:45:45;15.82;;;6.68;;
74530;SDS011;63010;55.668;37.878;2022-08-24T07:48:13;12.63;;;5.03;;
74530;SDS011;63010;55.668;37.878;2022-08-24T07:50:39;10.95;;;4.50;;
74530;SDS011;63010;55.668;37.878;2022-08-24T07:53:04;8.60;;;4.90;;
74530;SDS011;63010;55.668;37.878;2022-08-24T07:55:30;12.40;;;5.47;;
74530;SDS011;63010;55.668;37.878;2022-08-24T07:57:55;7.30;;;4.25;;
74530;SDS011;63010;55.668;37.878;2022-08-24T08:00:21;11.07;;;4.82;;
74530;SDS011;63010;55.668;37.878;2022-08-24T08:02:47;9.82;;;4.60;;
74530;SDS011;63010;55.668;37.878;2022-08-24T08:05:14;9.63;;;4.88;;
74530;SDS011;63010;55.668;37.878;2022-08-24T08:07:40;13.43;;;4.90;;
74530;SDS011;63010;55.668;37.878;2022-08-24T08:10:07;17.33;;;4.97;;
74530;SDS011;63010;55.668;37.878;2022-08-24T08:12:34;9.68;;;5.03;;
74530;SDS011;63010;55.668;37.878;2022-08-24T08:15:00;13.05;;;7.32;;
74530;SDS011;63010;55.668;37.878;2022-08-24T08:17:28;9.43;;;5.00;;
74530;SDS011;63010;55.668;37.878;2022-08-24T08:19:53;7.55;;;4.20;;
74530;SDS011;63010;55.668;37.878;2022-08-24T08:22:19;7.97;;;4.63;;
74530;SDS011;63010;55.668;37.878;2022-08-24T08:25:03;7.78;;;4.70;;
74530;SDS011;63010;55.668;37.878;2022-08-24T08:27:31;9.60;;;4.35;;
74530;SDS011;63010;55.668;37.878;2022-08-24T08:29:57;6.05;;;3.33;;
74530;SDS011;63010;55.668;37.878;2022-08-24T08:32:22;9.48;;;4.18;;
74530;SDS011;63010;55.668;37.878;2022-08-24T08:34:48;5.13;;;3.55;;
74530;SDS011;63010;55.668;37.878;2022-08-24T08:37:14;6.22;;;3.85;;
74530;SDS011;63010;55.668;37.878;2022-08-24T08:39:39;10.80;;;4.25;;
74530;SDS011;63010;55.668;37.878;2022-08-24T08:44:51;9.43;;;3.90;;
74530;SDS011;63010;55.668;37.878;2022-08-24T09:23:29;7.95;;;3.10;;
74530;SDS011;63010;55.668;37.878;2022-08-24T09:29:00;7.03;;;3.35;;
74530;SDS011;63010;55.668;37.878;2022-08-24T09:31:37;6.18;;;2.75;;
74530;SDS011;63010;55.668;37.878;2022-08-24T09:36:52;5.22;;;2.95;;
74530;SDS011;63010;55.668;37.878;2022-08-24T09:39:42;5.80;;;3.33;;
74530;SDS011;63010;55.668;37.878;2022-08-24T09:42:36;7.20;;;2.95;;
74530;SDS011;63010;55.668;37.878;2022-08-24T09:59:06;4.03;;;2.67;;
74530;SDS011;63010;55.668;37.878;2022-08-24T10:04:37;12.98;;;3.83;;
74530;SDS011;63010;55.668;37.878;2022-08-24T10:07:30;9.40;;;3.92;;
74530;SDS011;63010;55.668;37.878;2022-08-24T10:16:05;4.75;;;3.67;;
74530;SDS011;63010;55.668;37.878;2022-08-24T10:18:43;5.80;;;3.50;;
74530;SDS011;63010;55.668;37.878;2022-08-24T10:35:14;4.85;;;3.28;;
74530;SDS011;63010;55.668;37.878;2022-08-24T10:43:33;6.45;;;3.63;;
74530;SDS011;63010;55.668;37.878;2022-08-24T10:49:14;9.30;;;3.85;;
74530;SDS011;63010;55.668;37.878;2022-08-24T10:54:39;7.28;;;3.50;;
74530;SDS011;63010;55.668;37.878;2022-08-24T10:57:14;4.90;;;3.45;;
74530;SDS011;63010;55.668;37.878;2022-08-24T11:02:41;7.13;;;3.67;;
74530;SDS011;63010;55.668;37.878;2022-08-24T11:05:13;5.93;;;3.72;;
74530;SDS011;63010;55.668;37.878;2022-08-24T11:07:56;5.70;;;3.38;;
74530;SDS011;63010;55.668;37.878;2022-08-24T11:10:41;4.43;;;3.60;;
74530;SDS011;63010;55.668;37.878;2022-08-24T11:13:17;5.45;;;3.35;;
74530;SDS011;63010;55.668;37.878;2022-08-24T11:15:50;8.30;;;3.90;;
74530;SDS011;63010;55.668;37.878;2022-08-24T11:18:18;3.50;;;3.13;;
74530;SDS011;63010;55.668;37.878;2022-08-24T11:20:44;4.38;;;3.25;;
74530;SDS011;63010;55.668;37.878;2022-08-24T11:23:19;6.47;;;3.38;;
74530;SDS011;63010;55.668;37.878;2022-08-24T11:25:54;5.22;;;3.33;;
74530;SDS011;63010;55.668;37.878;2022-08-24T11:31:26;4.53;;;3.38;;
74530;SDS011;63010;55.668;37.878;2022-08-24T11:34:15;5.07;;;3.38;;
74530;SDS011;63010;55.668;37.878;2022-08-24T11:36:43;5.15;;;3.20;;
74530;SDS011;63010;55.668;37.878;2022-08-24T11:49:48;6.55;;;3.55;;
74530;SDS011;63010;55.668;37.878;2022-08-24T11:52:42;5.93;;;3.30;;
74530;SDS011;63010;55.668;37.878;2022-08-24T11:55:40;9.18;;;3.55;;
74530;SDS011;63010;55.668;37.878;2022-08-24T11:58:18;5.57;;;3.70;;
74530;SDS011;63010;55.668;37.878;2022-08-24T12:01:25;7.65;;;3.08;;
74530;SDS011;63010;55.668;37.878;2022-08-24T12:04:00;3.20;;;2.78;;
74530;SDS011;63010;55.668;37.878;2022-08-24T12:14:46;9.95;;;4.80;;
74530;SDS011;63010;55.668;37.878;2022-08-24T12:22:14;5.38;;;3.40;;
74530;SDS011;63010;55.668;37.878;2022-08-24T12:24:43;6.95;;;3.40;;
74530;SDS011;63010;55.668;37.878;2022-08-24T12:27:19;4.70;;;3.35;;
74530;SDS011;63010;55.668;37.878;2022-08-24T12:29:51;4.28;;;2.92;;
74530;SDS011;63010;55.668;37.878;2022-08-24T12:32:31;3.10;;;2.90;;
74530;SDS011;63010;55.668;37.878;2022-08-24T12:37:50;5.95;;;2.80;;
74530;SDS011;63010;55.668;37.878;2022-08-24T12:43:38;4.97;;;3.60;;
74530;SDS011;63010;55.668;37.878;2022-08-24T12:45:57;11.63;;;3.17;;
74530;SDS011;63010;55.668;37.878;2022-08-24T12:48:36;4.63;;;3.15;;
74530;SDS011;63010;55.668;37.878;2022-08-24T12:59:47;5.68;;;3.00;;
74530;SDS011;63010;55.668;37.878;2022-08-24T13:04:43;8.43;;;2.72;;
74530;SDS011;63010;55.668;37.878;2022-08-24T13:17:41;4.30;;;1.83;;
74530;SDS011;63010;55.668;37.878;2022-08-24T13:20:15;5.85;;;2.10;;
74530;SDS011;63010;55.668;37.878;2022-08-24T13:23:13;8.25;;;2.65;;
74530;SDS011;63010;55.668;37.878;2022-08-24T13:33:17;4.72;;;1.90;;
74530;SDS011;63010;55.668;37.878;2022-08-24T13:47:44;2.20;;;1.75;;
74530;SDS011;63010;55.668;37.878;2022-08-24T13:56:55;9.38;;;1.88;;
74530;SDS011;63010;55.668;37.878;2022-08-24T14:13:34;4.85;;;2.00;;
74530;SDS011;63010;55.668;37.878;2022-08-24T14:23:04;8.13;;;2.20;;
74530;SDS011;63010;55.668;37.878;2022-08-24T14:25:21;3.80;;;2.25;;
74530;SDS011;63010;55.668;37.878;2022-08-24T14:27:50;5.75;;;2.13;;
74530;SDS011;63010;55.668;37.878;2022-08-24T14:33:15;4.95;;;2.30;;
74530;SDS011;63010;55.668;37.878;2022-08-24T14:38:46;3.55;;;1.88;;
74530;SDS011;63010;55.668;37.878;2022-08-24T14:50:07;6.75;;;2.92;;
74530;SDS011;63010;55.668;37.878;2022-08-24T14:58:59;5.75;;;2.45;;
74530;SDS011;63010;55.668;37.878;2022-08-24T15:06:53;6.07;;;2.47;;
74530;SDS011;63010;55.668;37.878;2022-08-24T15:11:55;7.10;;;2.70;;
74530;SDS011;63010;55.668;37.878;2022-08-24T15:17:07;9.73;;;2.97;;
74530;SDS011;63010;55.668;37.878;2022-08-24T15:20:18;7.55;;;3.15;;
74530;SDS011;63010;55.668;37.878;2022-08-24T15:22:45;6.55;;;3.42;;
74530;SDS011;63010;55.668;37.878;2022-08-24T15:25:38;7.03;;;3.25;;
74530;SDS011;63010;55.668;37.878;2022-08-24T15:28:23;10.43;;;4.25;;
74530;SDS011;63010;55.668;37.878;2022-08-24T15:31:01;13.25;;;4.72;;
74530;SDS011;63010;55.668;37.878;2022-08-24T15:33:27;9.73;;;4.47;;
74530;SDS011;63010;55.668;37.878;2022-08-24T15:38:40;15.02;;;4.15;;
74530;SDS011;63010;55.668;37.878;2022-08-24T15:41:14;9.07;;;5.10;;
74530;SDS011;63010;55.668;37.878;2022-08-24T15:44:23;9.02;;;4.63;;
74530;SDS011;63010;55.668;37.878;2022-08-24T15:47:00;7.07;;;4.13;;
74530;SDS011;63010;55.668;37.878;2022-08-24T15:49:50;7.03;;;4.15;;
74530;SDS011;63010;55.668;37.878;2022-08-24T15:55:00;9.75;;;4.93;;
74530;SDS011;63010;55.668;37.878;2022-08-24T15:57:29;10.05;;;4.78;;
74530;SDS011;63010;55.668;37.878;2022-08-24T16:00:10;13.38;;;8.23;;
74530;SDS011;63010;55.668;37.878;2022-08-24T16:02:38;19.60;;;12.32;;
74530;SDS011;63010;55.668;37.878;2022-08-24T16:10:46;9.30;;;5.78;;
74530;SDS011;63010;55.668;37.878;2022-08-24T16:18:21;16.83;;;8.48;;
74530;SDS011;63010;55.668;37.878;2022-08-24T16:21:13;9.88;;;5.47;;
74530;SDS011;63010;55.668;37.878;2022-08-24T16:23:43;16.90;;;9.98;;
74530;SDS011;63010;55.668;37.878;2022-08-24T16:28:48;21.63;;;8.55;;
74530;SDS011;63010;55.668;37.878;2022-08-24T16:31:41;21.95;;;12.93;;
74530;SDS011;63010;55.668;37.878;2022-08-24T16:34:15;15.55;;;9.85;;
74530;SDS011;63010;55.668;37.878;2022-08-24T16:36:44;17.65;;;11.45;;
74530;SDS011;63010;55.668;37.878;2022-08-24T16:39:10;16.02;;;9.68;;
74530;SDS011;63010;55.668;37.878;2022-08-24T16:41:36;21.38;;;11.32;;
74530;SDS011;63010;55.668;37.878;2022-08-24T16:44:04;15.05;;;8.98;;
74530;SDS011;63010;55.668;37.878;2022-08-24T16:46:33;19.30;;;8.05;;
74530;SDS011;63010;55.668;37.878;2022-08-24T16:48:58;19.02;;;8.13;;
74530;SDS011;63010;55.668;37.878;2022-08-24T16:51:24;23.60;;;11.85;;
74530;SDS011;63010;55.668;37.878;2022-08-24T16:53:50;18.58;;;10.57;;
74530;SDS011;63010;55.668;37.878;2022-08-24T16:56:16;25.48;;;9.00;;
74530;SDS011;63010;55.668;37.878;2022-08-24T16:58:41;21.42;;;8.73;;
74530;SDS011;63010;55.668;37.878;2022-08-24T17:01:09;31.25;;;12.55;;
74530;SDS011;63010;55.668;37.878;2022-08-24T17:03:35;28.35;;;14.38;;
74530;SDS011;63010;55.668;37.878;2022-08-24T17:06:00;24.48;;;11.52;;
74530;SDS011;63010;55.668;37.878;2022-08-24T17:08:26;23.10;;;11.35;;
74530;SDS011;63010;55.668;37.878;2022-08-24T17:10:52;23.15;;;11.75;;
74530;SDS011;63010;55.668;37.878;2022-08-24T17:13:19;26.17;;;12.35;;
74530;SDS011;63010;55.668;37.878;2022-08-24T17:15:45;35.13;;;16.10;;
74530;SDS011;63010;55.668;37.878;2022-08-24T17:18:10;25.67;;;13.73;;
74530;SDS011;63010;55.668;37.878;2022-08-24T17:20:38;21.13;;;12.45;;
74530;SDS011;63010;55.668;37.878;2022-08-24T17:23:04;30.27;;;13.07;;
74530;SDS011;63010;55.668;37.878;2022-08-24T17:25:30;25.65;;;14.95;;
74530;SDS011;63010;55.668;37.878;2022-08-24T17:27:56;28.48;;;13.57;;
74530;SDS011;63010;55.668;37.878;2022-08-24T17:30:23;27.75;;;13.38;;
74530;SDS011;63010;55.668;37.878;2022-08-24T17:32:50;35.67;;;14.23;;
74530;SDS011;63010;55.668;37.878;2022-08-24T17:35:16;35.10;;;15.63;;
74530;SDS011;63010;55.668;37.878;2022-08-24T17:37:44;31.40;;;15.70;;
74530;SDS011;63010;55.668;37.878;2022-08-24T17:40:10;33.13;;;14.27;;
74530;SDS011;63010;55.668;37.878;2022-08-24T17:42:38;28.10;;;14.15;;
74530;SDS011;63010;55.668;37.878;2022-08-24T17:45:04;29.27;;;14.38;;
74530;SDS011;63010;55.668;37.878;2022-08-24T17:47:30;41.17;;;17.08;;
74530;SDS011;63010;55.668;37.878;2022-08-24T17:49:58;30.85;;;16.83;;
74530;SDS011;63010;55.668;37.878;2022-08-24T17:52:24;30.77;;;14.50;;
74530;SDS011;63010;55.668;37.878;2022-08-24T17:54:49;35.35;;;15.23;;
74530;SDS011;63010;55.668;37.878;2022-08-24T17:57:15;32.15;;;14.95;;
74530;SDS011;63010;55.668;37.878;2022-08-24T17:59:41;34.35;;;19.60;;
74530;SDS011;63010;55.668;37.878;2022-08-24T18:02:09;34.17;;;17.17;;
74530;SDS011;63010;55.668;37.878;2022-08-24T18:04:39;41.28;;;20.25;;
74530;SDS011;63010;55.668;37.878;2022-08-24T18:07:06;35.75;;;15.85;;
74530;SDS011;63010;55.668;37.878;2022-08-24T18:09:52;35.75;;;15.77;;
74530;SDS011;63010;55.668;37.878;2022-08-24T18:12:21;28.10;;;16.17;;
74530;SDS011;63010;55.668;37.878;2022-08-24T18:14:48;37.70;;;14.38;;
74530;SDS011;63010;55.668;37.878;2022-08-24T18:17:15;27.30;;;13.55;;
74530;SDS011;63010;55.668;37.878;2022-08-24T18:19:44;34.63;;;13.95;;
74530;SDS011;63010;55.668;37.878;2022-08-24T18:22:13;37.80;;;14.35;;
74530;SDS011;63010;55.668;37.878;2022-08-24T18:24:39;31.75;;;13.48;;
74530;SDS011;63010;55.668;37.878;2022-08-24T18:27:07;29.77;;;14.77;;
74530;SDS011;63010;55.668;37.878;2022-08-24T18:29:35;38.67;;;14.25;;
74530;SDS011;63010;55.668;37.878;2022-08-24T18:32:04;33.63;;;14.50;;
74530;SDS011;63010;55.668;37.878;2022-08-24T18:36:56;38.08;;;15.10;;
74530;SDS011;63010;55.668;37.878;2022-08-24T18:41:47;35.58;;;14.48;;
74530;SDS011;63010;55.668;37.878;2022-08-24T18:44:15;28.65;;;14.55;;
74530;SDS011;63010;55.668;37.878;2022-08-24T18:46:43;40.08;;;16.45;;
74530;SDS011;63010;55.668;37.878;2022-08-24T18:51:34;33.75;;;13.38;;
74530;SDS011;63010;55.668;37.878;2022-08-24T18:54:11;28.33;;;13.27;;
74530;SDS011;63010;55.668;37.878;2022-08-24T18:56:40;34.70;;;13.38;;
74530;SDS011;63010;55.668;37.878;2022-08-24T18:59:07;27.23;;;12.98;;
74530;SDS011;63010;55.668;37.878;2022-08-24T19:01:36;32.15;;;12.77;;
74530;SDS011;63010;55.668;37.878;2022-08-24T19:04:21;34.00;;;12.52;;
74530;SDS011;63010;55.668;37.878;2022-08-24T19:09:12;32.35;;;13.07;;
74530;SDS011;63010;55.668;37.878;2022-08-24T19:14:03;31.80;;;14.60;;
74530;SDS011;63010;55.668;37.878;2022-08-24T19:16:29;26.02;;;13.40;;
74530;SDS011;63010;55.668;37.878;2022-08-24T19:21:20;31.90;;;14.75;;
74530;SDS011;63010;55.668;37.878;2022-08-24T19:26:11;27.38;;;13.70;;
74530;SDS011;63010;55.668;37.878;2022-08-24T19:28:37;31.23;;;14.43;;
74530;SDS011;63010;55.668;37.878;2022-08-24T19:31:06;26.95;;;15.35;;
74530;SDS011;63010;55.668;37.878;2022-08-24T19:33:36;31.90;;;14.27;;
74530;SDS011;63010;55.668;37.878;2022-08-24T19:36:05;30.83;;;12.73;;
74530;SDS011;63010;55.668;37.878;2022-08-24T19:40:56;41.25;;;17.42;;
74530;SDS011;63010;55.668;37.878;2022-08-24T19:45:51;36.42;;;15.02;;
74530;SDS011;63010;55.668;37.878;2022-08-24T19:48:28;33.45;;;13.43;;
74530;SDS011;63010;55.668;37.878;2022-08-24T19:50:55;34.25;;;17.50;;